Time;durP1;ratioP1;P1;durP2;ratioP2;P2;SDS_P1;SDS_P2;PMS_P1;PMS_P2;Temp;Humidity;BMP_temperature;BMP_pressure;BME280_temperature;BME280_humidity;BME280_pressure;Samples;Min_cycle;Max_cycle;Signal;HPM_P1;HPM_P2
2023/05/15 00:00:39;;;;;;;;;;;;;;;;;;4994919;28;20571;-73
2023/05/15 00:03:05;;;;;;;4.28;1.30;;;;;;;;;;4992318;28;20455;-73
2023/05/15 00:05:31;;;;;;;4.30;1.10;;;;;;;;;;4991803;28;20034;-73
2023/05/15 00:07:57;;;;;;;;;;;;;;;;;;4989317;28;20026;-73
2023/05/15 00:10:23;;;;;;;5.13;1.10;;;;;;;;;;5008392;28;19971;-73
2023/05/15 00:12:49;;;;;;;;;;;;;;;;;;4991822;28;20065;-72
2023/05/15 00:15:15;;;;;;;3.47;1.20;;;;;;;;;;4990585;28;20004;-73
2023/05/15 00:17:41;;;;;;;;;;;;;;;;;;4988861;28;20029;-73
2023/05/15 00:20:08;;;;;;;4.75;1.20;;;;;;;;;;4987267;28;20002;-73
2023/05/15 00:22:35;;;;;;;3.55;0.98;;;;;;;;;;4998502;28;20029;-74
2023/05/15 00:25:00;;;;;;;;;;;;;;;;;;4998148;28;20039;-74
2023/05/15 00:27:27;;;;;;;4.10;1.10;;;;;;;;;;5001023;28;20331;-72
2023/05/15 00:29:53;;;;;;;;;;;;;;;;;;4999266;28;20038;-72
2023/05/15 00:32:19;;;;;;;2.60;1.15;;;;;;;;;;4997542;28;19967;-71
2023/05/15 00:34:45;;;;;;;4.45;1.10;;;;;;;;;;4998081;28;20041;-71
2023/05/15 00:37:11;;;;;;;;;;;;;;;;;;4996533;28;20022;-72
2023/05/15 00:39:37;;;;;;;3.95;1.08;;;;;;;;;;5015543;28;19913;-72
2023/05/15 00:42:03;;;;;;;;;;;;;;;;;;4997651;28;20033;-72
2023/05/15 00:44:31;;;;;;;4.10;1.17;;;;;;;;;;5000656;28;19916;-72
2023/05/15 00:46:57;;;;;;;5.68;1.30;;;;;;;;;;4996623;28;20029;-71
2023/05/15 00:49:26;;;;;;;4.75;1.25;;;;;;;;;;4999716;28;20384;-72
2023/05/15 00:51:53;;;;;;;3.75;1.30;;;;;;;;;;4991822;28;20029;-73
2023/05/15 00:54:19;;;;;;;5.68;1.58;;;;;;;;;;4996991;28;20424;-72
2023/05/15 00:56:45;;;;;;;5.35;1.45;;;;;;;;;;4996506;28;20152;-72
2023/05/15 00:59:12;;;;;;;4.30;1.30;;;;;;;;;;4997320;28;20143;-71
2023/05/15 01:01:39;;;;;;;3.60;1.40;;;;;;;;;;4997265;28;20040;-73
2023/05/15 01:04:05;;;;;;;5.88;1.60;;;;;;;;;;4994063;28;20134;-73
2023/05/15 01:06:31;;;;;;;;;;;;;;;;;;4997951;28;20037;-73
2023/05/15 01:09:05;;;;;;;5.07;1.67;;;;;;;;;;4995687;28;20391;-73
2023/05/15 01:11:35;;;;;;;6.10;1.77;;;;;;;;;;4998830;28;20397;-73
2023/05/15 01:14:05;;;;;;;6.10;1.92;;;;;;;;;;4996838;28;20067;-73
2023/05/15 01:16:32;;;;;;;6.07;1.65;;;;;;;;;;5000294;28;20043;-72
2023/05/15 01:18:58;;;;;;;4.78;1.50;;;;;;;;;;4995961;28;20270;-73
2023/05/15 01:21:33;;;;;;;5.22;1.40;;;;;;;;;;5002759;28;20295;-72
2023/05/15 01:24:08;;;;;;;5.78;1.63;;;;;;;;;;4994956;28;20121;-72
2023/05/15 01:27:07;;;;;;;3.70;1.35;;;;;;;;;;5014536;28;20041;-72
2023/05/15 01:29:37;;;;;;;6.43;1.75;;;;;;;;;;4964183;28;20042;-73
2023/05/15 01:32:12;;;;;;;3.90;1.40;;;;;;;;;;4955429;28;20046;-73
2023/05/15 01:34:44;;;;;;;5.95;1.58;;;;;;;;;;4956721;28;20356;-72
2023/05/15 01:37:12;;;;;;;4.53;1.40;;;;;;;;;;4961761;28;21154;-72
2023/05/15 01:39:38;;;;;;;5.13;1.45;;;;;;;;;;4960579;28;20133;-72
2023/05/15 01:42:08;;;;;;;3.17;1.20;;;;;;;;;;4974428;28;20030;-71
2023/05/15 01:44:42;;;;;;;3.60;1.30;;;;;;;;;;4963915;28;20634;-72
2023/05/15 01:47:12;;;;;;;6.70;1.50;;;;;;;;;;4958168;28;20559;-72
2023/05/15 01:49:39;;;;;;;5.70;1.60;;;;;;;;;;4958057;28;20037;-71
2023/05/15 01:52:08;;;;;;;6.72;1.73;;;;;;;;;;4973792;28;20166;-71
2023/05/15 01:54:35;;;;;;;7.72;1.50;;;;;;;;;;4953619;28;20037;-72
2023/05/15 01:57:02;;;;;;;3.75;1.23;;;;;;;;;;4972473;28;20033;-72
2023/05/15 01:59:29;;;;;;;3.97;1.25;;;;;;;;;;4958678;28;20430;-72
2023/05/15 02:01:56;;;;;;;4.90;1.33;;;;;;;;;;4955387;28;20905;-73
2023/05/15 02:04:23;;;;;;;3.50;1.25;;;;;;;;;;4959623;28;20049;-72
2023/05/15 02:06:50;;;;;;;5.13;1.30;;;;;;;;;;4992589;28;20162;-71
2023/05/15 02:09:16;;;;;;;3.17;1.10;;;;;;;;;;4998029;28;20143;-72
2023/05/15 02:11:43;;;;;;;5.07;1.50;;;;;;;;;;4993377;28;20073;-71
2023/05/15 02:14:10;;;;;;;6.38;1.67;;;;;;;;;;4997437;28;20076;-71
2023/05/15 02:16:37;;;;;;;6.05;1.67;;;;;;;;;;4997037;28;20075;-72
2023/05/15 02:19:03;;;;;;;4.43;1.60;;;;;;;;;;4994684;28;20028;-71
2023/05/15 02:21:29;;;;;;;5.47;1.63;;;;;;;;;;4997007;28;20025;-72
2023/05/15 02:23:55;;;;;;;;;;;;;;;;;;4993287;28;20415;-72
2023/05/15 02:26:28;;;;;;;5.55;1.67;;;;;;;;;;4996565;28;20361;-72
2023/05/15 02:29:13;;;;;;;5.18;1.30;;;;;;;;;;4994101;28;20464;-71
2023/05/15 02:31:45;;;;;;;5.05;1.50;;;;;;;;;;4993696;28;20318;-72
2023/05/15 02:34:18;;;;;;;4.05;1.17;;;;;;;;;;4998145;28;20136;-72
2023/05/15 02:36:46;;;;;;;3.50;1.20;;;;;;;;;;4994766;28;20394;-71
2023/05/15 02:39:15;;;;;;;5.93;1.40;;;;;;;;;;4994450;28;20099;-72
2023/05/15 02:41:42;;;;;;;5.47;1.20;;;;;;;;;;4995846;28;20478;-71
2023/05/15 02:44:09;;;;;;;5.93;1.25;;;;;;;;;;4997426;28;20044;-71
2023/05/15 02:46:36;;;;;;;3.08;1.10;;;;;;;;;;5018049;28;20063;-72
2023/05/15 02:49:03;;;;;;;5.60;1.20;;;;;;;;;;4998509;28;20025;-72
2023/05/15 02:51:30;;;;;;;4.53;1.30;;;;;;;;;;4998881;28;20079;-73
2023/05/15 02:53:56;;;;;;;4.00;1.10;;;;;;;;;;4997849;28;20110;-72
2023/05/15 02:56:22;;;;;;;;;;;;;;;;;;5004597;28;20033;-72
2023/05/15 02:58:48;;;;;;;5.05;1.10;;;;;;;;;;4998704;28;20273;-72
2023/05/15 03:01:15;;;;;;;3.00;1.00;;;;;;;;;;5002336;28;20425;-71
2023/05/15 03:03:41;;;;;;;3.40;1.05;;;;;;;;;;5001442;28;21810;-72
2023/05/15 03:06:07;;;;;;;4.00;1.20;;;;;;;;;;5001804;28;20151;-72
2023/05/15 03:08:33;;;;;;;;;;;;;;;;;;5002334;28;20179;-71
2023/05/15 03:10:59;;;;;;;3.45;1.20;;;;;;;;;;4999066;28;20828;-73
2023/05/15 03:13:25;;;;;;;;;;;;;;;;;;5001588;28;20036;-73
2023/05/15 03:15:52;;;;;;;3.80;1.10;;;;;;;;;;4997193;28;19912;-74
2023/05/15 03:18:18;;;;;;;4.15;1.00;;;;;;;;;;4999208;28;20083;-71
2023/05/15 03:20:44;;;;;;;4.30;1.00;;;;;;;;;;4996624;28;20037;-71
2023/05/15 03:23:10;;;;;;;3.42;0.98;;;;;;;;;;4999892;28;20587;-73
2023/05/15 03:25:37;;;;;;;3.15;1.08;;;;;;;;;;5000849;28;20029;-73
2023/05/15 03:28:03;;;;;;;;;;;;;;;;;;4997430;28;20306;-73
2023/05/15 03:30:29;;;;;;;3.75;1.23;;;;;;;;;;4998079;28;20024;-73
2023/05/15 03:32:56;;;;;;;;;;;;;;;;;;4996622;28;20065;-73
2023/05/15 03:35:22;;;;;;;;;;;;;;;;;;4998478;28;19912;-73
2023/05/15 03:37:48;;;;;;;3.30;1.10;;;;;;;;;;4994490;28;20473;-73
2023/05/15 03:40:14;;;;;;;3.60;1.10;;;;;;;;;;4998887;28;20026;-73
2023/05/15 03:42:40;;;;;;;;;;;;;;;;;;4995988;28;20033;-73
2023/05/15 03:45:07;;;;;;;4.75;1.20;;;;;;;;;;4992869;28;19913;-73
2023/05/15 03:47:33;;;;;;;4.38;1.10;;;;;;;;;;4998871;28;20072;-72
2023/05/15 03:49:59;;;;;;;;;;;;;;;;;;4997296;28;20460;-73
2023/05/15 03:52:25;;;;;;;3.95;1.10;;;;;;;;;;5001101;28;19913;-72
2023/05/15 03:54:51;;;;;;;2.35;0.90;;;;;;;;;;4994372;28;20658;-73
2023/05/15 03:57:17;;;;;;;;;;;;;;;;;;5001583;28;20108;-73
2023/05/15 03:59:43;;;;;;;4.15;1.20;;;;;;;;;;4993658;28;20407;-73
2023/05/15 04:02:09;;;;;;;;;;;;;;;;;;4998946;28;20367;-74
2023/05/15 04:04:36;;;;;;;3.95;1.10;;;;;;;;;;4996901;28;19913;-72
2023/05/15 04:07:02;;;;;;;3.50;0.93;;;;;;;;;;4995846;28;20491;-72
2023/05/15 04:09:28;;;;;;;;;;;;;;;;;;5000348;28;20025;-72
2023/05/15 04:11:54;;;;;;;3.38;1.20;;;;;;;;;;4994086;28;19924;-73
2023/05/15 04:14:21;;;;;;;3.85;1.15;;;;;;;;;;4999696;28;20800;-73
2023/05/15 04:16:47;;;;;;;3.78;1.30;;;;;;;;;;4994580;28;20564;-73
2023/05/15 04:19:13;;;;;;;;;;;;;;;;;;4999459;28;20107;-73
2023/05/15 04:21:39;;;;;;;4.68;1.60;;;;;;;;;;4997911;28;20415;-72
2023/05/15 04:24:05;;;;;;;;;;;;;;;;;;4994640;28;20040;-73
2023/05/15 04:26:31;;;;;;;5.07;1.42;;;;;;;;;;4996650;28;20428;-72
2023/05/15 04:28:58;;;;;;;6.03;1.50;;;;;;;;;;4995071;28;20764;-71
2023/05/15 04:31:26;;;;;;;5.93;1.50;;;;;;;;;;4996041;28;22092;-72
2023/05/15 04:33:52;;;;;;;7.80;1.38;;;;;;;;;;4992843;28;20045;-72
2023/05/15 04:36:18;;;;;;;5.82;1.52;;;;;;;;;;4999217;28;20028;-73
2023/05/15 04:38:45;;;;;;;;;;;;;;;;;;4995859;28;21685;-71
2023/05/15 04:41:11;;;;;;;6.03;1.85;;;;;;;;;;4999047;28;19912;-72
2023/05/15 04:43:37;;;;;;;;;;;;;;;;;;4998211;28;20254;-71
2023/05/15 04:46:03;;;;;;;6.13;2.00;;;;;;;;;;4995991;28;20439;-73
2023/05/15 04:48:29;;;;;;;6.38;2.00;;;;;;;;;;4998084;28;20045;-72
2023/05/15 04:50:55;;;;;;;;;;;;;;;;;;4995058;28;20029;-71
2023/05/15 04:53:22;;;;;;;6.57;2.10;;;;;;;;;;4997115;28;20396;-72
2023/05/15 04:55:50;;;;;;;;;;;;;;;;;;4997693;28;20385;-71
2023/05/15 04:58:16;;;;;;;9.15;2.92;;;;;;;;;;4998511;28;19955;-72
2023/05/15 05:00:42;;;;;;;7.18;2.50;;;;;;;;;;4995671;28;20030;-72
2023/05/15 05:03:08;;;;;;;8.68;2.63;;;;;;;;;;4998733;28;20069;-71
2023/05/15 05:05:34;;;;;;;;;;;;;;;;;;4998196;28;20560;-72
2023/05/15 05:08:00;;;;;;;7.30;2.30;;;;;;;;;;4995260;28;20372;-72
2023/05/15 05:10:27;;;;;;;7.30;2.60;;;;;;;;;;4998379;28;20048;-72
2023/05/15 05:12:53;;;;;;;8.02;2.60;;;;;;;;;;4996722;28;20489;-72
2023/05/15 05:15:19;;;;;;;;;;;;;;;;;;4999307;28;20527;-72
2023/05/15 05:17:45;;;;;;;9.70;2.50;;;;;;;;;;4993209;28;19917;-72
2023/05/15 05:20:12;;;;;;;7.40;2.60;;;;;;;;;;4999828;28;20507;-72
2023/05/15 05:22:39;;;;;;;8.55;2.75;;;;;;;;;;5000162;28;20040;-71
2023/05/15 05:25:06;;;;;;;8.98;3.15;;;;;;;;;;4995121;28;20188;-72
2023/05/15 05:27:33;;;;;;;11.05;3.58;;;;;;;;;;4997535;28;20017;-72
2023/05/15 05:29:59;;;;;;;;;;;;;;;;;;4992895;28;20034;-73
2023/05/15 05:32:25;;;;;;;9.45;3.25;;;;;;;;;;4995396;28;19921;-72
2023/05/15 05:34:51;;;;;;;10.52;3.10;;;;;;;;;;4996188;28;20203;-72
2023/05/15 05:37:17;;;;;;;;;;;;;;;;;;4995289;28;20277;-72
2023/05/15 05:39:44;;;;;;;9.98;3.45;;;;;;;;;;4993384;28;20145;-72
2023/05/15 05:42:10;;;;;;;9.70;3.20;;;;;;;;;;4997083;28;20038;-72
2023/05/15 05:44:36;;;;;;;;;;;;;;;;;;4998018;28;20474;-72
2023/05/15 05:47:02;;;;;;;8.90;3.10;;;;;;;;;;4996379;28;20305;-72
2023/05/15 05:49:28;;;;;;;10.75;3.08;;;;;;;;;;4998251;28;20033;-72
2023/05/15 05:51:54;;;;;;;;;;;;;;;;;;4994583;28;20495;-72
2023/05/15 05:54:20;;;;;;;9.48;2.95;;;;;;;;;;5013986;28;19917;-72
2023/05/15 05:56:46;;;;;;;;;;;;;;;;;;4994310;28;20037;-73
2023/05/15 05:59:12;;;;;;;10.95;3.33;;;;;;;;;;4999942;28;19920;-72
2023/05/15 06:01:39;;;;;;;11.02;3.50;;;;;;;;;;4995409;28;20271;-72
2023/05/15 06:04:04;;;;;;;;;;;;;;;;;;4991357;28;20034;-72
2023/05/15 06:06:31;;;;;;;8.88;3.03;;;;;;;;;;4998772;28;20633;-73
2023/05/15 06:08:57;;;;;;;;;;;;;;;;;;4995427;28;20118;-73
2023/05/15 06:11:23;;;;;;;10.25;3.00;;;;;;;;;;4997402;28;20445;-72
2023/05/15 06:13:49;;;;;;;11.10;3.40;;;;;;;;;;4995657;28;20036;-72
2023/05/15 06:16:15;;;;;;;7.22;2.83;;;;;;;;;;4995828;28;20037;-72
2023/05/15 06:18:41;;;;;;;;;;;;;;;;;;5013407;28;20557;-72
2023/05/15 06:21:07;;;;;;;10.18;3.00;;;;;;;;;;4996880;28;19960;-72
2023/05/15 06:23:34;;;;;;;9.43;3.05;;;;;;;;;;5001908;28;20041;-72
2023/05/15 06:26:00;;;;;;;8.18;3.13;;;;;;;;;;5000754;28;20117;-72
2023/05/15 06:28:26;;;;;;;8.85;3.00;;;;;;;;;;5004811;28;20033;-72
2023/05/15 06:30:53;;;;;;;9.90;3.00;;;;;;;;;;5000722;28;20441;-72
2023/05/15 06:33:20;;;;;;;11.32;6.05;;;;;;;;;;5017738;28;20508;-72
2023/05/15 06:35:46;;;;;;;10.95;4.35;;;;;;;;;;5000139;28;20037;-72
2023/05/15 06:38:13;;;;;;;10.23;3.30;;;;;;;;;;5003105;28;20060;-72
2023/05/15 06:40:39;;;;;;;13.60;3.60;;;;;;;;;;5000659;28;20025;-72
2023/05/15 06:43:05;;;;;;;8.02;2.65;;;;;;;;;;4999640;28;20354;-72
2023/05/15 06:45:31;;;;;;;9.65;3.17;;;;;;;;;;5002921;28;20048;-72
2023/05/15 06:47:57;;;;;;;8.00;2.50;;;;;;;;;;4998110;28;20107;-71
2023/05/15 06:50:23;;;;;;;;;;;;;;;;;;5002217;28;20030;-71
2023/05/15 06:52:50;;;;;;;11.15;3.65;;;;;;;;;;5001428;28;20538;-72
2023/05/15 06:55:16;;;;;;;10.70;3.30;;;;;;;;;;5000566;28;20037;-72
2023/05/15 06:57:42;;;;;;;8.13;2.75;;;;;;;;;;4997961;28;20029;-72
2023/05/15 07:00:09;;;;;;;7.65;2.53;;;;;;;;;;4999418;28;20603;-72
2023/05/15 07:02:35;;;;;;;10.35;2.30;;;;;;;;;;5000017;28;20844;-72
2023/05/15 07:05:01;;;;;;;6.97;2.45;;;;;;;;;;4998600;28;20025;-72
2023/05/15 07:07:28;;;;;;;9.27;2.30;;;;;;;;;;5000558;28;20049;-72
2023/05/15 07:09:53;;;;;;;;;;;;;;;;;;4998113;28;20148;-72
2023/05/15 07:12:20;;;;;;;9.48;2.60;;;;;;;;;;4999257;28;20401;-72
2023/05/15 07:14:46;;;;;;;;;;;;;;;;;;4998733;28;20029;-72
2023/05/15 07:17:12;;;;;;;9.50;2.35;;;;;;;;;;5002148;28;20395;-72
2023/05/15 07:19:38;;;;;;;6.20;2.00;;;;;;;;;;5001806;28;20045;-72
2023/05/15 07:22:04;;;;;;;8.63;2.38;;;;;;;;;;5010486;28;20371;-72
2023/05/15 07:24:31;;;;;;;8.63;2.47;;;;;;;;;;5001483;28;20034;-73
2023/05/15 07:26:57;;;;;;;7.20;2.20;;;;;;;;;;5028073;28;20311;-73
2023/05/15 07:29:23;;;;;;;8.27;2.33;;;;;;;;;;5004648;28;20057;-73
2023/05/15 07:31:49;;;;;;;6.63;2.25;;;;;;;;;;4996329;28;20572;-73
2023/05/15 07:34:15;;;;;;;6.03;1.83;;;;;;;;;;5000719;28;20041;-73
2023/05/15 07:36:41;;;;;;;;;;;;;;;;;;4999502;28;20025;-74
2023/05/15 07:39:07;;;;;;;6.20;2.00;;;;;;;;;;5002829;28;20206;-73
2023/05/15 07:41:34;;;;;;;6.05;1.80;;;;;;;;;;5000677;28;20021;-74
2023/05/15 07:44:00;;;;;;;5.68;1.80;;;;;;;;;;4995805;28;20038;-73
2023/05/15 07:46:26;;;;;;;;;;;;;;;;;;4997310;28;20484;-73
2023/05/15 07:48:52;;;;;;;6.90;1.92;;;;;;;;;;5000176;28;19913;-73
2023/05/15 07:51:18;;;;;;;7.13;2.00;;;;;;;;;;5000137;28;20021;-73
2023/05/15 07:53:44;;;;;;;8.48;1.98;;;;;;;;;;4998654;28;20029;-73
2023/05/15 07:56:10;;;;;;;8.77;2.30;;;;;;;;;;5002249;28;20064;-73
2023/05/15 07:58:37;;;;;;;7.93;3.13;;;;;;;;;;5002818;28;20030;-71
2023/05/15 08:01:03;;;;;;;7.13;2.65;;;;;;;;;;4996101;28;21015;-71
2023/05/15 08:03:30;;;;;;;7.35;2.15;;;;;;;;;;5001091;28;20286;-72
2023/05/15 08:05:56;;;;;;;6.03;2.30;;;;;;;;;;4998267;28;20087;-73
2023/05/15 08:08:22;;;;;;;7.68;2.10;;;;;;;;;;5001581;28;20029;-71
2023/05/15 08:10:48;;;;;;;5.95;2.08;;;;;;;;;;4999078;28;20643;-72
2023/05/15 08:13:14;;;;;;;9.05;2.97;;;;;;;;;;5002248;28;20595;-72
2023/05/15 08:15:40;;;;;;;6.13;2.15;;;;;;;;;;4999092;28;20041;-74
2023/05/15 08:18:10;;;;;;;7.00;1.98;;;;;;;;;;4997320;28;20224;-74
2023/05/15 08:20:37;;;;;;;5.72;2.13;;;;;;;;;;5000135;28;20025;-74
2023/05/15 08:23:03;;;;;;;8.15;2.30;;;;;;;;;;4999775;28;20269;-73
2023/05/15 08:25:29;;;;;;;7.45;2.03;;;;;;;;;;5000846;28;20037;-73
2023/05/15 08:27:55;;;;;;;7.18;1.98;;;;;;;;;;5000161;28;20048;-73
2023/05/15 08:30:21;;;;;;;6.63;2.20;;;;;;;;;;5001744;28;20052;-73
2023/05/15 08:32:48;;;;;;;5.38;1.73;;;;;;;;;;4996072;28;20045;-73
2023/05/15 08:35:14;;;;;;;6.38;2.10;;;;;;;;;;5002517;28;20124;-72
2023/05/15 08:37:40;;;;;;;9.50;2.30;;;;;;;;;;5000844;28;20037;-73
2023/05/15 08:40:08;;;;;;;7.32;2.38;;;;;;;;;;4999024;28;20065;-72
2023/05/15 08:42:52;;;;;;;6.50;2.22;;;;;;;;;;5001093;28;20309;-71
2023/05/15 08:45:19;;;;;;;5.28;2.05;;;;;;;;;;4998629;28;20201;-75
2023/05/15 08:47:45;;;;;;;6.13;1.92;;;;;;;;;;4996430;28;20492;-74
2023/05/15 08:50:13;;;;;;;6.05;1.98;;;;;;;;;;4999203;28;20030;-74
2023/05/15 08:52:44;;;;;;;6.22;1.98;;;;;;;;;;5000190;28;20842;-74
2023/05/15 08:55:11;;;;;;;8.27;1.80;;;;;;;;;;5030137;28;20033;-76
2023/05/15 08:57:37;;;;;;;7.97;2.47;;;;;;;;;;4999984;28;20033;-76
2023/05/15 09:00:08;;;;;;;8.80;2.40;;;;;;;;;;4991924;28;20030;-75
2023/05/15 09:02:40;;;;;;;8.45;2.10;;;;;;;;;;4998566;28;20396;-76
2023/05/15 09:05:08;;;;;;;6.03;2.20;;;;;;;;;;4993012;28;20405;-76
2023/05/15 09:07:34;;;;;;;5.75;2.10;;;;;;;;;;4998564;28;20040;-75
2023/05/15 09:10:01;;;;;;;6.88;2.00;;;;;;;;;;4993688;28;20581;-75
2023/05/15 09:12:27;;;;;;;6.22;2.08;;;;;;;;;;4999652;28;20076;-75
2023/05/15 09:15:08;;;;;;;5.13;1.70;;;;;;;;;;4996189;28;20386;-75
2023/05/15 09:17:34;;;;;;;7.10;2.20;;;;;;;;;;4997943;28;20469;-76
2023/05/15 09:20:03;;;;;;;10.18;2.50;;;;;;;;;;4997308;28;20959;-74
2023/05/15 09:22:33;;;;;;;5.70;1.77;;;;;;;;;;4999029;28;20068;-73
2023/05/15 09:25:01;;;;;;;4.57;1.50;;;;;;;;;;5028430;28;20456;-73
2023/05/15 09:27:27;;;;;;;4.90;1.90;;;;;;;;;;4999165;28;20572;-73
2023/05/15 09:29:56;;;;;;;7.15;2.20;;;;;;;;;;4993920;28;20551;-74
2023/05/15 09:32:22;;;;;;;7.43;2.20;;;;;;;;;;4998040;28;20036;-73
2023/05/15 09:34:48;;;;;;;6.10;1.90;;;;;;;;;;4996193;28;20178;-74
2023/05/15 09:37:31;;;;;;;10.55;2.00;;;;;;;;;;4999000;28;20025;-75
2023/05/15 09:40:08;;;;;;;6.93;1.80;;;;;;;;;;4996183;28;20025;-73
2023/05/15 09:42:37;;;;;;;7.68;2.13;;;;;;;;;;4999395;28;20465;-74
2023/05/15 09:45:03;;;;;;;5.50;1.80;;;;;;;;;;5012001;28;20029;-73
2023/05/15 09:47:30;;;;;;;5.22;1.90;;;;;;;;;;4999428;28;20048;-74
2023/05/15 09:49:56;;;;;;;5.53;1.73;;;;;;;;;;5012373;28;20784;-74
2023/05/15 09:52:22;;;;;;;6.88;2.08;;;;;;;;;;4999516;28;20378;-74
2023/05/15 09:54:49;;;;;;;6.47;1.73;;;;;;;;;;4998274;28;20300;-74
2023/05/15 09:57:15;;;;;;;6.35;1.98;;;;;;;;;;5000984;28;20528;-74
2023/05/15 09:59:45;;;;;;;5.78;1.70;;;;;;;;;;4998256;28;20029;-72
2023/05/15 10:02:27;;;;;;;6.28;1.70;;;;;;;;;;5002331;28;20152;-72
2023/05/15 10:04:56;;;;;;;4.72;1.55;;;;;;;;;;4996700;28;20022;-74
2023/05/15 10:07:30;;;;;;;8.93;2.10;;;;;;;;;;4998142;28;20412;-74
2023/05/15 10:09:56;;;;;;;8.82;2.58;;;;;;;;;;4999575;28;20421;-73
2023/05/15 10:12:23;;;;;;;7.15;2.53;;;;;;;;;;4998370;28;20541;-73
2023/05/15 10:14:50;;;;;;;5.60;2.20;;;;;;;;;;4994497;28;20615;-74
2023/05/15 10:17:18;;;;;;;7.15;3.30;;;;;;;;;;5001052;28;20451;-76
2023/05/15 10:19:44;;;;;;;8.43;2.65;;;;;;;;;;4996470;28;20030;-71
2023/05/15 10:22:12;;;;;;;10.02;2.88;;;;;;;;;;5001135;28;20025;-73
2023/05/15 10:24:39;;;;;;;7.72;2.55;;;;;;;;;;5002441;28;20344;-72
2023/05/15 10:27:06;;;;;;;6.95;1.98;;;;;;;;;;4997341;28;20061;-74
2023/05/15 10:29:32;;;;;;;6.60;2.17;;;;;;;;;;4998690;28;20348;-70
2023/05/15 10:32:00;;;;;;;6.40;2.45;;;;;;;;;;4998472;28;20055;-73
2023/05/15 10:34:26;;;;;;;8.88;2.67;;;;;;;;;;5000236;28;20465;-73
2023/05/15 10:36:53;;;;;;;5.95;2.05;;;;;;;;;;4995494;28;20029;-76
2023/05/15 10:39:19;;;;;;;5.75;2.10;;;;;;;;;;4998862;28;20075;-74
2023/05/15 10:41:46;;;;;;;7.55;2.17;;;;;;;;;;4997104;28;20064;-74
2023/05/15 10:44:14;;;;;;;5.10;1.92;;;;;;;;;;5000733;28;20429;-74
2023/05/15 10:46:40;;;;;;;6.30;2.00;;;;;;;;;;4998530;28;20087;-74
2023/05/15 10:49:06;;;;;;;7.28;1.95;;;;;;;;;;4997107;28;20037;-73
2023/05/15 10:51:34;;;;;;;7.75;2.30;;;;;;;;;;5002108;28;20036;-74
2023/05/15 10:54:04;;;;;;;6.60;2.28;;;;;;;;;;4998644;28;20034;-73
2023/05/15 10:56:31;;;;;;;5.30;1.73;;;;;;;;;;4997559;28;20022;-74
2023/05/15 10:58:57;;;;;;;7.93;2.35;;;;;;;;;;4998528;28;20381;-73
2023/05/15 11:01:28;;;;;;;8.25;2.33;;;;;;;;;;4998264;28;20053;-74
2023/05/15 11:04:09;;;;;;;7.47;2.10;;;;;;;;;;4998351;28;20079;-75
2023/05/15 11:06:36;;;;;;;6.90;1.90;;;;;;;;;;5000874;28;20080;-74
2023/05/15 11:09:21;;;;;;;5.50;1.83;;;;;;;;;;5000269;28;20737;-74
2023/05/15 11:12:07;;;;;;;7.45;1.80;;;;;;;;;;4998788;28;20041;-75
2023/05/15 11:14:36;;;;;;;5.63;1.55;;;;;;;;;;5003651;28;20161;-75
2023/05/15 11:17:04;;;;;;;4.95;1.90;;;;;;;;;;5001986;28;20187;-74
2023/05/15 11:19:34;;;;;;;7.15;1.92;;;;;;;;;;5005321;28;20365;-75
2023/05/15 11:22:02;;;;;;;5.40;1.75;;;;;;;;;;4999364;28;20451;-73
2023/05/15 11:24:33;;;;;;;5.82;1.73;;;;;;;;;;5005794;28;20870;-74
2023/05/15 11:27:03;;;;;;;6.40;1.70;;;;;;;;;;5000309;28;20641;-74
2023/05/15 11:29:30;;;;;;;5.47;1.65;;;;;;;;;;5005258;28;20064;-74
2023/05/15 11:31:57;;;;;;;6.10;1.90;;;;;;;;;;4999154;28;20131;-73
2023/05/15 11:34:33;;;;;;;4.38;1.65;;;;;;;;;;5005661;28;20025;-72
2023/05/15 11:37:00;;;;;;;6.45;1.83;;;;;;;;;;4999407;28;20523;-72
2023/05/15 11:39:26;;;;;;;4.43;1.48;;;;;;;;;;5007857;28;20629;-75
2023/05/15 11:41:54;;;;;;;6.85;1.90;;;;;;;;;;5002199;28;20029;-75
2023/05/15 11:44:21;;;;;;;15.13;3.17;;;;;;;;;;5003305;28;20030;-70
2023/05/15 11:46:47;;;;;;;4.82;1.50;;;;;;;;;;5002356;28;20092;-73
2023/05/15 11:49:14;;;;;;;6.40;1.80;;;;;;;;;;5002439;28;20026;-72
2023/05/15 11:51:42;;;;;;;4.60;1.65;;;;;;;;;;5005786;28;20060;-73
2023/05/15 11:54:10;;;;;;;5.20;1.50;;;;;;;;;;5004698;28;20025;-72
2023/05/15 11:56:42;;;;;;;4.18;1.40;;;;;;;;;;5002995;28;20081;-72
2023/05/15 11:59:09;;;;;;;6.63;1.80;;;;;;;;;;5004023;28;20028;-73
2023/05/15 12:01:40;;;;;;;4.28;1.50;;;;;;;;;;5031460;28;20588;-74
2023/05/15 12:04:16;;;;;;;7.57;2.38;;;;;;;;;;4999294;28;20034;-73
2023/05/15 12:06:43;;;;;;;6.63;1.85;;;;;;;;;;4998374;28;20030;-72
2023/05/15 12:09:27;;;;;;;6.60;1.77;;;;;;;;;;5003521;28;20567;-73
2023/05/15 12:11:54;;;;;;;7.28;1.80;;;;;;;;;;4997714;28;20494;-72
2023/05/15 12:14:27;;;;;;;7.80;1.98;;;;;;;;;;5001924;28;20269;-72
2023/05/15 12:16:56;;;;;;;8.73;1.90;;;;;;;;;;4999863;28;20080;-72
2023/05/15 12:19:29;;;;;;;6.38;1.77;;;;;;;;;;5000580;28;20371;-73
2023/05/15 12:21:55;;;;;;;7.88;1.92;;;;;;;;;;5000943;28;20036;-73
2023/05/15 12:24:21;;;;;;;6.13;1.90;;;;;;;;;;5004189;28;20101;-73
2023/05/15 12:26:47;;;;;;;6.25;1.90;;;;;;;;;;4999520;28;20045;-73
2023/05/15 12:29:14;;;;;;;6.53;2.05;;;;;;;;;;5004084;28;20025;-73
2023/05/15 12:31:41;;;;;;;5.25;1.60;;;;;;;;;;5001899;28;20397;-73
2023/05/15 12:34:07;;;;;;;7.13;1.70;;;;;;;;;;4997090;28;20030;-73
2023/05/15 12:36:33;;;;;;;6.25;2.00;;;;;;;;;;5004083;28;20033;-73
2023/05/15 12:39:05;;;;;;;7.00;2.20;;;;;;;;;;4998743;28;20307;-73
2023/05/15 12:41:31;;;;;;;7.07;1.88;;;;;;;;;;5004089;28;20037;-73
2023/05/15 12:43:57;;;;;;;7.90;1.90;;;;;;;;;;5000397;28;20099;-72
2023/05/15 12:46:30;;;;;;;7.28;2.00;;;;;;;;;;5001892;28;20452;-72
2023/05/15 12:49:00;;;;;;;6.93;1.90;;;;;;;;;;4999984;28;20021;-74
2023/05/15 12:51:28;;;;;;;6.15;1.70;;;;;;;;;;5004688;28;20040;-72
2023/05/15 12:53:56;;;;;;;7.22;2.20;;;;;;;;;;5002528;28;20217;-71
2023/05/15 12:56:23;;;;;;;7.72;1.65;;;;;;;;;;5010414;28;20087;-74
2023/05/15 12:58:50;;;;;;;10.13;1.95;;;;;;;;;;5000537;28;20025;-75
2023/05/15 13:01:16;;;;;;;6.63;2.00;;;;;;;;;;5004300;28;20430;-72
2023/05/15 13:03:43;;;;;;;6.35;1.83;;;;;;;;;;5000873;28;20124;-75
2023/05/15 13:06:09;;;;;;;5.55;1.60;;;;;;;;;;5002401;28;20469;-75
2023/05/15 13:08:39;;;;;;;5.82;1.70;;;;;;;;;;5002624;28;20568;-71
2023/05/15 13:11:05;;;;;;;8.55;2.05;;;;;;;;;;4998913;28;20030;-72
2023/05/15 13:13:42;;;;;;;6.25;1.85;;;;;;;;;;5000726;28;20037;-73
2023/05/15 13:16:17;;;;;;;5.68;1.58;;;;;;;;;;5002410;28;20224;-73
2023/05/15 13:18:43;;;;;;;5.93;1.90;;;;;;;;;;5001115;28;20049;-72
2023/05/15 13:21:09;;;;;;;6.03;1.80;;;;;;;;;;5001839;28;20507;-71
2023/05/15 13:23:35;;;;;;;7.75;1.67;;;;;;;;;;5004011;28;20120;-73
2023/05/15 13:26:01;;;;;;;6.55;1.52;;;;;;;;;;5001432;28;20029;-72
2023/05/15 13:28:27;;;;;;;7.28;1.80;;;;;;;;;;5003572;28;20033;-72
2023/05/15 13:30:53;;;;;;;6.65;1.77;;;;;;;;;;4998979;28;20565;-72
2023/05/15 13:33:20;;;;;;;5.65;1.63;;;;;;;;;;5003690;28;20151;-72
2023/05/15 13:35:46;;;;;;;13.23;1.88;;;;;;;;;;5001967;28;20026;-73
2023/05/15 13:38:13;;;;;;;6.95;1.80;;;;;;;;;;5003512;28;20029;-72
2023/05/15 13:40:39;;;;;;;5.45;1.70;;;;;;;;;;4999772;28;20033;-74
2023/05/15 13:43:08;;;;;;;6.55;1.70;;;;;;;;;;4996265;28;20024;-72
2023/05/15 13:45:34;;;;;;;7.82;2.42;;;;;;;;;;5001527;28;20742;-72
2023/05/15 13:48:00;;;;;;;5.65;1.70;;;;;;;;;;5001671;28;20140;-73
2023/05/15 13:50:26;;;;;;;6.25;1.60;;;;;;;;;;5000728;28;20583;-72
2023/05/15 13:52:55;;;;;;;4.20;1.45;;;;;;;;;;4997863;28;20552;-72
2023/05/15 13:55:21;;;;;;;6.13;1.80;;;;;;;;;;5000586;28;20634;-72
2023/05/15 13:57:48;;;;;;;6.72;1.70;;;;;;;;;;4998989;28;20033;-72
2023/05/15 14:00:14;;;;;;;5.55;1.40;;;;;;;;;;4999947;28;20056;-71
2023/05/15 14:02:41;;;;;;;6.28;1.42;;;;;;;;;;5001817;28;20053;-72
2023/05/15 14:05:08;;;;;;;5.07;1.45;;;;;;;;;;5003401;28;20025;-72
2023/05/15 14:07:36;;;;;;;4.65;1.30;;;;;;;;;;5001785;28;20050;-72
2023/05/15 14:10:02;;;;;;;4.95;1.30;;;;;;;;;;4996128;28;20594;-72
2023/05/15 14:12:29;;;;;;;7.95;1.70;;;;;;;;;;5004545;28;20057;-71
2023/05/15 14:14:55;;;;;;;8.40;1.77;;;;;;;;;;4994713;28;20474;-71
2023/05/15 14:17:22;;;;;;;5.97;1.60;;;;;;;;;;5002226;28;20036;-71
2023/05/15 14:19:48;;;;;;;9.32;1.80;;;;;;;;;;4998094;28;20035;-73
2023/05/15 14:22:14;;;;;;;5.53;1.58;;;;;;;;;;5004056;28;20450;-73
2023/05/15 14:24:41;;;;;;;9.10;1.98;;;;;;;;;;5002383;28;20037;-73
2023/05/15 14:27:07;;;;;;;7.05;1.90;;;;;;;;;;5001648;28;20457;-73
2023/05/15 14:29:33;;;;;;;7.88;1.80;;;;;;;;;;4999599;28;20483;-72
2023/05/15 14:32:00;;;;;;;4.72;1.48;;;;;;;;;;5000184;28;20056;-73
2023/05/15 14:34:26;;;;;;;4.10;1.50;;;;;;;;;;5001992;28;20025;-73
2023/05/15 14:36:52;;;;;;;6.00;1.63;;;;;;;;;;4998434;28;20026;-73
2023/05/15 14:39:18;;;;;;;5.78;1.58;;;;;;;;;;5004433;28;20448;-73
2023/05/15 14:41:45;;;;;;;6.53;1.63;;;;;;;;;;5004882;28;20052;-73
2023/05/15 14:44:11;;;;;;;7.35;1.80;;;;;;;;;;5006289;28;20184;-74
2023/05/15 14:46:37;;;;;;;7.75;1.95;;;;;;;;;;5007947;28;20041;-73
2023/05/15 14:49:04;;;;;;;6.97;1.80;;;;;;;;;;5004727;28;20407;-73
2023/05/15 14:51:30;;;;;;;5.38;1.48;;;;;;;;;;5006115;28;20440;-72
2023/05/15 14:53:57;;;;;;;4.10;1.33;;;;;;;;;;5001925;28;20029;-72
2023/05/15 14:56:23;;;;;;;3.85;1.20;;;;;;;;;;5008988;28;20116;-72